Svinoy — V7RM5 — position and weather

sailwx.info

Track history (hours):
 
Tides and Currents Weather Stations Pressure Air Temp Water Temp Dewpoint Dewpoint Depression Visibility Wind Speed Wind Dir Waves Ship Positions

Svinoy

Last reported at 2014-Jun-11 01:29 UTC. Time now 2014-Jul-24 20:03 UTC.
Position S 29°45' E 031°43'.
Warning: this ship's position is 43 days out of date.

Length 190 m; draft 12.4 m.

Type: Ship. MMSI: 538003541.

Date/timePositionNaut miles runAvg speedWind from/ knotsBaromVisibWave heightAir tempDewpointWater temp
2014-Jun-11 01:29S 29°45' E 031°43'7 7.6
2014-Jun-11 00:33S 29°47' E 031°35'9 9.1
2014-Jun-10 23:33S 29°48' E 031°24'1111.0
2014-Jun-10 22:33S 29°49' E 031°12'9 8.9
2014-Jun-10 21:33S 29°53' E 031°02'1 0.5
2014-Jun-10 20:28S 29°52' E 031°02'0 0.0
2014-Jun-10 19:22S 29°52' E 031°02'0 0.0
2014-Jun-10 18:28S 29°52' E 031°02'0 0.0
2014-Jun-10 17:22S 29°52' E 031°02'0 0.0
2014-Jun-10 16:28S 29°52' E 031°02'0 0.0
2014-Jun-10 15:28S 29°52' E 031°02'0 0.0
2014-Jun-10 14:28S 29°52' E 031°02'0 0.0
2014-Jun-10 13:28S 29°52' E 031°02'0 0.0
2014-Jun-10 12:22S 29°52' E 031°02'0 0.0
2014-Jun-10 11:28S 29°52' E 031°02'3 2.9
2014-Jun-10 10:33S 29°51' E 031°05'3 2.9
2014-Jun-10 09:33S 29°49' E 031°07'1 0.6
2014-Jun-10 08:33S 29°49' E 031°07'4 3.6
2014-Jun-10 07:33S 29°53' E 031°09'9 9.1
2014-Jun-10 06:33S 30°01' E 031°05'6011.6
2014-Jun-10 01:24S 30°56' E 030°37'2511.7
2014-Jun-09 23:15S 31°17' E 030°21'1012.7
2014-Jun-09 22:29S 31°25' E 030°14'1312.3
2014-Jun-09 21:27S 31°35' E 030°06'2310.9
2014-Jun-09 19:21S 31°54' E 029°50'10 9.2
2014-Jun-09 18:19S 32°01' E 029°43'8 8.7
2014-Jun-09 17:26S 32°06' E 029°36'9 8.7
2014-Jun-09 16:22S 32°13' E 029°28'8 8.6
2014-Jun-09 15:29S 32°17' E 029°21'11 8.0
2014-Jun-09 14:07S 32°25' E 029°11'84 7.1
2014-Jun-09 02:15S 33°20' E 027°56'13 7.0
2014-Jun-09 00:26S 33°28' E 027°44'6 6.7
2014-Jun-08 23:29S 33°32' E 027°39'8 6.7
2014-Jun-08 22:14S 33°38' E 027°31'24 6.4
2014-Jun-08 18:31S 33°53' E 027°09'25810.2
2014-Jun-07 17:19S 35°05' E 022°09'15510.5
2014-Jun-07 02:29S 34°44' E 019°01'1110.8
2014-Jun-07 01:30S 34°39' E 018°50'1010.8
2014-Jun-07 00:33S 34°35' E 018°39'1410.5
2014-Jun-06 23:15S 34°28' E 018°24'1210.0
2014-Jun-06 22:03S 34°20' E 018°13'5 9.9
2014-Jun-06 21:33S 34°17' E 018°09'1110.0
2014-Jun-06 20:27S 34°09' E 017°59'  
Track history (hours):
 
Tides and Currents Weather Stations Pressure Air Temp Water Temp Dewpoint Dewpoint Depression Visibility Wind Speed Wind Dir Waves Ship Positions

Svinoy

Last reported at 2014-Jun-11 01:29 UTC. Time now 2014-Jul-24 20:03 UTC.
Position S 29°45' E 031°43'.
Warning: this ship's position is 43 days out of date.

Length 190 m; draft 12.4 m.

Type: Ship. MMSI: 538003541.

Date/timePositionNaut miles runAvg speedWind from/ knotsBaromVisibWave heightAir tempDewpointWater temp
2014-Jun-11 01:29S 29°45' E 031°43'7 7.6
2014-Jun-11 00:33S 29°47' E 031°35'9 9.1
2014-Jun-10 23:33S 29°48' E 031°24'1111.0
2014-Jun-10 22:33S 29°49' E 031°12'9 8.9
2014-Jun-10 21:33S 29°53' E 031°02'1 0.5
2014-Jun-10 20:28S 29°52' E 031°02'0 0.0
2014-Jun-10 19:22S 29°52' E 031°02'0 0.0
2014-Jun-10 18:28S 29°52' E 031°02'0 0.0
2014-Jun-10 17:22S 29°52' E 031°02'0 0.0
2014-Jun-10 16:28S 29°52' E 031°02'0 0.0
2014-Jun-10 15:28S 29°52' E 031°02'0 0.0
2014-Jun-10 14:28S 29°52' E 031°02'0 0.0
2014-Jun-10 13:28S 29°52' E 031°02'0 0.0
2014-Jun-10 12:22S 29°52' E 031°02'0 0.0
2014-Jun-10 11:28S 29°52' E 031°02'3 2.9
2014-Jun-10 10:33S 29°51' E 031°05'3 2.9
2014-Jun-10 09:33S 29°49' E 031°07'1 0.6
2014-Jun-10 08:33S 29°49' E 031°07'4 3.6
2014-Jun-10 07:33S 29°53' E 031°09'9 9.1
2014-Jun-10 06:33S 30°01' E 031°05'6011.6
2014-Jun-10 01:24S 30°56' E 030°37'2511.7
2014-Jun-09 23:15S 31°17' E 030°21'1012.7
2014-Jun-09 22:29S 31°25' E 030°14'1312.3
2014-Jun-09 21:27S 31°35' E 030°06'2310.9
2014-Jun-09 19:21S 31°54' E 029°50'10 9.2
2014-Jun-09 18:19S 32°01' E 029°43'8 8.7
2014-Jun-09 17:26S 32°06' E 029°36'9 8.7
2014-Jun-09 16:22S 32°13' E 029°28'8 8.6
2014-Jun-09 15:29S 32°17' E 029°21'11 8.0
2014-Jun-09 14:07S 32°25' E 029°11'84 7.1
2014-Jun-09 02:15S 33°20' E 027°56'13 7.0
2014-Jun-09 00:26S 33°28' E 027°44'6 6.7
2014-Jun-08 23:29S 33°32' E 027°39'8 6.7
2014-Jun-08 22:14S 33°38' E 027°31'24 6.4
2014-Jun-08 18:31S 33°53' E 027°09'25810.2
2014-Jun-07 17:19S 35°05' E 022°09'15510.5
2014-Jun-07 02:29S 34°44' E 019°01'1110.8
2014-Jun-07 01:30S 34°39' E 018°50'1010.8
2014-Jun-07 00:33S 34°35' E 018°39'1410.5
2014-Jun-06 23:15S 34°28' E 018°24'1210.0
2014-Jun-06 22:03S 34°20' E 018°13'5 9.9
2014-Jun-06 21:33S 34°17' E 018°09'1110.0
2014-Jun-06 20:27S 34°09' E 017°59'  

Dump ship's entire track history